Time;durP1;ratioP1;P1;durP2;ratioP2;P2;SDS_P1;SDS_P2;PMS_P1;PMS_P2;Temp;Humidity;BMP_temperature;BMP_pressure;BME280_temperature;BME280_humidity;BME280_pressure;Samples;Min_cycle;Max_cycle;Signal;HPM_P1;HPM_P2
2021/08/05 00:00:08;;;;;;;;;;;16.00;99.90;;;;;;1878969;76;20229;-73
2021/08/05 00:02:35;;;;;;;;;;;16.00;99.90;;;;;;1878534;76;20176;-73
2021/08/05 00:05:02;;;;;;;;;;;16.00;99.90;;;;;;1862053;76;20291;-73
2021/08/05 00:07:29;;;;;;;;;;;16.00;99.90;;;;;;1876496;76;20327;-72
2021/08/05 00:09:55;;;;;;;;;;;15.80;99.90;;;;;;1878802;76;20199;-72
2021/08/05 00:12:22;;;;;;;;;;;15.70;99.90;;;;;;1870660;76;20150;-73
2021/08/05 00:14:49;;;;;;;;;;;15.70;99.90;;;;;;1864140;76;20187;-73
2021/08/05 00:17:16;;;;;;;;;;;15.80;99.90;;;;;;1874818;75;20190;-73
2021/08/05 00:19:43;;;;;;;;;;;15.90;99.90;;;;;;1857071;76;20465;-73
2021/08/05 00:22:09;;;;;;;;;;;15.80;99.90;;;;;;1856044;76;20178;-73
2021/08/05 00:24:37;;;;;;;;;;;15.60;99.90;;;;;;1861125;75;20262;-73
2021/08/05 00:27:04;;;;;;;;;;;15.70;99.90;;;;;;1861972;76;20213;-73
2021/08/05 00:29:31;;;;;;;;;;;15.70;99.90;;;;;;1855431;76;20206;-72
2021/08/05 00:31:58;;;;;;;;;;;15.70;99.90;;;;;;1868425;75;20215;-73
2021/08/05 00:34:24;;;;;;;;;;;15.80;99.90;;;;;;1871990;76;20197;-73
2021/08/05 00:36:51;;;;;;;;;;;15.80;99.90;;;;;;1865577;75;20163;-73
2021/08/05 00:39:18;;;;;;;;;;;15.60;99.90;;;;;;1856497;76;20203;-73
2021/08/05 00:41:45;;;;;;;;;;;15.60;99.90;;;;;;1866946;75;20219;-73
2021/08/05 00:44:12;;;;;;;;;;;15.40;99.90;;;;;;1865805;76;20341;-73
2021/08/05 00:46:38;;;;;;;;;;;15.40;99.90;;;;;;1863669;76;20183;-73
2021/08/05 00:49:05;;;;;;;;;;;15.40;99.90;;;;;;1863560;76;20159;-73
2021/08/05 00:51:32;;;;;;;;;;;15.40;99.90;;;;;;1864653;76;20195;-72
2021/08/05 00:53:59;;;;;;;;;;;15.50;99.90;;;;;;1864818;75;20405;-73
2021/08/05 00:56:26;;;;;;;;;;;15.40;99.90;;;;;;1864075;76;20441;-72
2021/08/05 00:58:53;;;;;;;;;;;15.40;99.90;;;;;;1869548;75;20191;-73
2021/08/05 01:01:21;;;;;;;;;;;15.30;99.90;;;;;;1862712;76;20172;-73
2021/08/05 01:03:49;;;;;;;;;;;15.40;99.90;;;;;;1865743;75;20171;-73
2021/08/05 01:06:20;;;;;;;;;;;15.30;99.90;;;;;;1869214;76;20239;-73
2021/08/05 01:08:48;;;;;;;;;;;15.40;99.90;;;;;;1878540;75;20163;-72
2021/08/05 01:11:17;;;;;;;;;;;15.40;99.90;;;;;;1868624;76;20484;-73
2021/08/05 01:13:51;;;;;;;;;;;15.50;99.90;;;;;;1857232;76;20159;-72
2021/08/05 01:16:20;;;;;;;;;;;15.50;99.90;;;;;;1877350;76;20200;-73
2021/08/05 01:18:48;;;;;;;;;;;15.50;99.90;;;;;;1878063;75;20179;-75
2021/08/05 01:21:22;;;;;;;;;;;15.40;99.90;;;;;;1870837;76;20203;-75
2021/08/05 01:23:57;;;;;;;;;;;15.20;99.90;;;;;;1870604;75;20467;-75
2021/08/05 01:26:25;;;;;;;;;;;15.20;99.90;;;;;;1862278;76;20163;-74
2021/08/05 01:28:52;;;;;;;;;;;15.10;99.90;;;;;;1858760;76;20500;-74
2021/08/05 01:31:20;;;;;;;;;;;15.10;99.90;;;;;;1862196;76;20227;-74
2021/08/05 01:33:48;;;;;;;;;;;15.10;99.90;;;;;;1863540;75;20442;-74
2021/08/05 01:36:15;;;;;;;;;;;15.20;99.90;;;;;;1862170;76;20512;-74
2021/08/05 01:38:42;;;;;;;;;;;15.10;99.90;;;;;;1861107;75;20206;-74
2021/08/05 01:41:09;;;;;;;;;;;15.00;99.90;;;;;;1866499;76;20175;-74
2021/08/05 01:43:38;;;;;;;;;;;15.00;99.90;;;;;;1867710;75;20178;-74
2021/08/05 01:46:05;;;;;;;;;;;15.00;99.90;;;;;;1861501;75;20565;-74
2021/08/05 01:48:33;;;;;;;;;;;15.00;99.90;;;;;;1864133;76;20460;-74
2021/08/05 01:51:00;;;;;;;;;;;15.00;99.90;;;;;;1873599;75;20460;-74
2021/08/05 01:53:27;;;;;;;;;;;15.00;99.90;;;;;;1870628;76;20172;-74
2021/08/05 01:55:54;;;;;;;;;;;15.10;99.90;;;;;;1865113;76;20219;-75
2021/08/05 01:58:21;;;;;;;;;;;15.10;99.90;;;;;;1869513;75;20191;-74
2021/08/05 02:00:48;;;;;;;;;;;15.10;99.90;;;;;;1867418;76;20229;-74
2021/08/05 02:03:16;;;;;;;;;;;15.10;99.90;;;;;;1870748;76;20953;-74
2021/08/05 02:05:50;;;;;;;;;;;15.10;99.90;;;;;;1864352;76;20270;-74
2021/08/05 02:08:19;;;;;;;;;;;15.00;99.90;;;;;;1857440;75;20265;-73
2021/08/05 02:10:46;;;;;;;;;;;15.00;99.90;;;;;;1856620;75;21118;-74
2021/08/05 02:13:27;;;;;;;;;;;14.90;99.90;;;;;;1872739;76;20496;-74
2021/08/05 02:15:56;;;;;;;;;;;15.00;99.90;;;;;;1864091;75;20116;-74
2021/08/05 02:18:24;;;;;;;;;;;14.90;99.90;;;;;;1878321;76;20448;-74
2021/08/05 02:20:51;;;;;;;;;;;14.80;99.90;;;;;;1878768;76;20202;-73
2021/08/05 02:23:18;;;;;;;;;;;14.70;99.90;;;;;;1878416;76;20160;-73
2021/08/05 02:25:51;;;;;;;;;;;14.70;99.90;;;;;;1878703;76;20163;-73
2021/08/05 02:28:22;;;;;;;;;;;14.70;99.90;;;;;;1863870;75;20117;-73
2021/08/05 02:30:53;;;;;;;;;;;14.80;99.90;;;;;;1875134;75;20255;-73
2021/08/05 02:33:21;;;;;;;;;;;14.70;99.90;;;;;;1848224;76;20189;-73
2021/08/05 02:35:48;;;;;;;;;;;14.80;99.90;;;;;;1846387;78;20218;-74
2021/08/05 02:38:15;;;;;;;;;;;14.60;99.90;;;;;;1870425;75;20121;-74
2021/08/05 02:40:43;;;;;;;;;;;14.60;99.90;;;;;;1879234;76;20198;-74
2021/08/05 02:43:11;;;;;;;;;;;14.60;99.90;;;;;;1877090;75;20226;-73
2021/08/05 02:45:38;;;;;;;;;;;14.60;99.90;;;;;;1854492;76;20296;-74
2021/08/05 02:48:07;;;;;;;;;;;14.50;99.90;;;;;;1875877;75;20180;-74
2021/08/05 02:50:34;;;;;;;;;;;14.60;99.90;;;;;;1878237;76;20218;-73
2021/08/05 02:53:02;;;;;;;;;;;14.60;99.90;;;;;;1873663;76;20201;-74
2021/08/05 02:55:29;;;;;;;;;;;14.60;99.90;;;;;;1870955;76;20242;-73
2021/08/05 02:57:56;;;;;;;;;;;14.50;99.90;;;;;;1855653;75;20351;-73
2021/08/05 03:00:23;;;;;;;;;;;14.40;99.90;;;;;;1861766;75;20212;-73
2021/08/05 03:02:50;;;;;;;;;;;14.40;99.90;;;;;;1862049;75;20183;-73
2021/08/05 03:05:17;;;;;;;;;;;14.30;99.90;;;;;;1872044;75;20184;-73
2021/08/05 03:07:45;;;;;;;;;;;14.30;99.90;;;;;;1860685;75;20209;-73
2021/08/05 03:10:13;;;;;;;;;;;14.40;99.90;;;;;;1855475;76;20334;-73
2021/08/05 03:12:39;;;;;;;;;;;14.30;99.90;;;;;;1863492;76;20187;-73
2021/08/05 03:15:07;;;;;;;;;;;14.40;99.90;;;;;;1858829;75;20201;-73
2021/08/05 03:17:34;;;;;;;;;;;14.40;99.90;;;;;;1856595;75;20217;-73
2021/08/05 03:20:00;;;;;;;;;;;14.60;99.90;;;;;;1865886;76;20186;-74
2021/08/05 03:22:28;;;;;;;;;;;14.60;99.90;;;;;;1853986;76;20162;-74
2021/08/05 03:24:54;;;;;;;;;;;14.60;99.90;;;;;;1855958;75;20186;-74
2021/08/05 03:27:21;;;;;;;;;;;14.40;99.90;;;;;;1852184;76;20215;-73
2021/08/05 03:29:48;;;;;;;;;;;14.40;99.90;;;;;;1878147;76;20230;-73
2021/08/05 03:32:15;;;;;;;;;;;14.50;99.90;;;;;;1862154;75;20194;-73
2021/08/05 03:34:42;;;;;;;;;;;14.30;99.90;;;;;;1862613;76;20178;-74
2021/08/05 03:37:08;;;;;;;;;;;14.20;99.90;;;;;;1872214;75;20183;-73
2021/08/05 03:39:35;;;;;;;;;;;14.20;99.90;;;;;;1867675;75;20183;-74
2021/08/05 03:42:02;;;;;;;;;;;14.20;99.90;;;;;;1861994;75;20246;-75
2021/08/05 03:44:29;;;;;;;;;;;14.20;99.90;;;;;;1866257;76;20525;-75
2021/08/05 03:46:56;;;;;;;;;;;14.20;99.90;;;;;;1873459;75;20239;-74
2021/08/05 03:49:23;;;;;;;;;;;14.30;99.90;;;;;;1846256;75;20230;-75
2021/08/05 03:51:49;;;;;;;;;;;14.20;99.90;;;;;;1866625;75;20520;-74
2021/08/05 03:54:16;;;;;;;;;;;14.40;99.90;;;;;;1856785;75;20188;-74
2021/08/05 03:56:44;;;;;;;;;;;14.40;99.90;;;;;;1860949;75;20650;-74
2021/08/05 03:59:11;;;;;;;;;;;14.30;99.90;;;;;;1866891;75;20182;-74
2021/08/05 04:01:38;;;;;;;;;;;14.20;99.90;;;;;;1874556;75;20587;-73
2021/08/05 04:04:05;;;;;;;;;;;14.20;99.90;;;;;;1872982;75;20184;-73
2021/08/05 04:06:32;;;;;;;;;;;14.30;99.90;;;;;;1863532;75;20437;-73
2021/08/05 04:08:58;;;;;;;;;;;14.20;99.90;;;;;;1845916;78;20176;-73
2021/08/05 04:11:25;;;;;;;;;;;14.20;99.90;;;;;;1867319;76;20179;-73
2021/08/05 04:13:52;;;;;;;;;;;14.30;99.90;;;;;;1873694;76;20231;-73
2021/08/05 04:16:19;;;;;;;;;;;14.40;99.90;;;;;;1875944;75;20179;-73
2021/08/05 04:18:46;;;;;;;;;;;14.40;99.90;;;;;;1878507;75;20183;-73
2021/08/05 04:21:12;;;;;;;;;;;14.50;99.90;;;;;;1879210;76;20155;-73
2021/08/05 04:23:39;;;;;;;;;;;14.50;99.90;;;;;;1873093;75;20179;-73
2021/08/05 04:26:06;;;;;;;;;;;14.40;99.90;;;;;;1864675;75;20160;-73
2021/08/05 04:28:33;;;;;;;;;;;14.50;99.90;;;;;;1854546;75;20171;-74
2021/08/05 04:31:00;;;;;;;;;;;14.40;99.90;;;;;;1871145;75;20168;-73
2021/08/05 04:33:27;;;;;;;;;;;14.50;99.90;;;;;;1877881;75;20207;-73
2021/08/05 04:35:54;;;;;;;;;;;14.50;99.90;;;;;;1859707;75;20492;-74
2021/08/05 04:38:21;;;;;;;;;;;14.50;99.90;;;;;;1849280;75;20206;-74
2021/08/05 04:40:47;;;;;;;;;;;14.60;99.90;;;;;;1862272;75;20524;-74
2021/08/05 04:43:14;;;;;;;;;;;14.50;99.90;;;;;;1852993;76;20186;-74
2021/08/05 04:45:41;;;;;;;;;;;14.60;99.90;;;;;;1867868;75;20463;-74
2021/08/05 04:48:08;;;;;;;;;;;14.60;99.90;;;;;;1852379;75;20174;-77
2021/08/05 04:50:36;;;;;;;;;;;14.70;99.90;;;;;;1856030;76;20153;-75
2021/08/05 04:53:04;;;;;;;;;;;14.60;99.90;;;;;;1877854;76;20210;-75
2021/08/05 04:55:31;;;;;;;;;;;14.70;99.90;;;;;;1861419;75;20168;-74
2021/08/05 04:57:59;;;;;;;;;;;14.70;99.90;;;;;;1868172;75;20177;-73
2021/08/05 05:00:27;;;;;;;;;;;14.70;99.90;;;;;;1868446;75;20174;-73
2021/08/05 05:02:54;;;;;;;;;;;14.70;99.90;;;;;;1863196;75;20223;-74
2021/08/05 05:05:22;;;;;;;;;;;14.80;99.90;;;;;;1863858;75;20175;-70
2021/08/05 05:07:48;;;;;;;;;;;14.90;99.90;;;;;;1860819;75;20180;-70
2021/08/05 05:10:16;;;;;;;;;;;14.80;99.90;;;;;;1866320;75;20161;-71
2021/08/05 05:12:43;;;;;;;;;;;14.90;99.90;;;;;;1877602;75;20306;-71
2021/08/05 05:15:10;;;;;;;;;;;15.00;99.90;;;;;;1868071;75;20278;-72
2021/08/05 05:17:38;;;;;;;;;;;15.00;99.90;;;;;;1871956;75;20176;-72
2021/08/05 05:20:05;;;;;;;;;;;15.10;99.90;;;;;;1865566;75;20180;-75
2021/08/05 05:22:32;;;;;;;;;;;15.20;99.90;;;;;;1874472;76;20167;-75
2021/08/05 05:24:59;;;;;;;;;;;15.40;99.90;;;;;;1847552;78;20177;-75
2021/08/05 05:27:26;;;;;;;;;;;15.40;99.90;;;;;;1858866;76;20546;-76
2021/08/05 05:29:56;;;;;;;;;;;15.50;99.90;;;;;;1874138;75;20191;-76
2021/08/05 05:32:22;;;;;;;;;;;15.60;99.90;;;;;;1877694;76;20201;-76
2021/08/05 05:34:48;;;;;;;;;;;15.70;99.90;;;;;;1877539;75;20191;-74
2021/08/05 05:37:15;;;;;;;;;;;15.70;99.90;;;;;;1867603;75;20338;-72
2021/08/05 05:39:42;;;;;;;;;;;15.80;99.90;;;;;;1874912;76;20179;-71
2021/08/05 05:42:09;;;;;;;;;;;15.80;99.90;;;;;;1877814;76;20523;-73
2021/08/05 05:44:36;;;;;;;;;;;15.80;99.90;;;;;;1874485;76;20339;-72
2021/08/05 05:47:02;;;;;;;;;;;15.80;99.90;;;;;;1868294;76;20491;-73
2021/08/05 05:49:29;;;;;;;;;;;15.90;99.90;;;;;;1879032;76;20171;-73
2021/08/05 05:51:57;;;;;;;;;;;15.90;99.90;;;;;;1878725;76;20341;-72
2021/08/05 05:54:24;;;;;;;;;;;16.00;99.90;;;;;;1878378;76;20116;-72
2021/08/05 05:56:50;;;;;;;;;;;16.00;99.90;;;;;;1878259;76;20219;-74
2021/08/05 05:59:18;;;;;;;;;;;16.00;99.90;;;;;;1878749;76;20167;-73
2021/08/05 06:01:44;;;;;;;;;;;16.00;99.90;;;;;;1878579;76;20603;-73
2021/08/05 06:04:11;;;;;;;;;;;16.00;99.90;;;;;;1878990;75;20233;-72
2021/08/05 06:06:38;;;;;;;;;;;16.00;99.90;;;;;;1878375;75;20413;-73
2021/08/05 06:09:05;;;;;;;;;;;16.10;99.90;;;;;;1876915;76;20238;-73
2021/08/05 06:11:32;;;;;;;;;;;16.10;99.90;;;;;;1878844;76;20448;-73
2021/08/05 06:13:58;;;;;;;;;;;16.00;99.90;;;;;;1878661;76;20191;-73
2021/08/05 06:16:25;;;;;;;;;;;16.00;99.90;;;;;;1877351;76;20163;-73
2021/08/05 06:18:52;;;;;;;;;;;16.00;99.90;;;;;;1878744;76;20143;-73
2021/08/05 06:21:19;;;;;;;;;;;16.00;99.90;;;;;;1876677;76;20175;-73
2021/08/05 06:23:46;;;;;;;;;;;16.10;99.90;;;;;;1872019;76;20438;-73
2021/08/05 06:26:13;;;;;;;;;;;16.00;99.90;;;;;;1869171;76;20158;-75
2021/08/05 06:28:39;;;;;;;;;;;16.10;99.90;;;;;;1852030;75;20187;-75
2021/08/05 06:31:06;;;;;;;;;;;16.20;99.90;;;;;;1874592;75;20180;-75
2021/08/05 06:33:35;;;;;;;;;;;16.20;99.90;;;;;;1892791;75;20184;-75
2021/08/05 06:36:02;;;;;;;;;;;16.20;99.90;;;;;;1888781;75;20180;-75
2021/08/05 06:38:28;;;;;;;;;;;16.30;99.90;;;;;;1874817;76;20206;-75
2021/08/05 06:40:55;;;;;;;;;;;16.30;99.90;;;;;;1871289;76;20194;-75
2021/08/05 06:43:22;;;;;;;;;;;16.40;99.90;;;;;;1877785;76;20168;-76
2021/08/05 06:45:49;;;;;;;;;;;16.50;99.90;;;;;;1878540;75;20148;-76
2021/08/05 06:48:15;;;;;;;;;;;16.50;99.90;;;;;;1876626;75;20245;-76
2021/08/05 06:50:42;;;;;;;;;;;16.60;99.90;;;;;;1878932;76;20165;-76
2021/08/05 06:53:09;;;;;;;;;;;16.70;99.90;;;;;;1875934;75;20858;-76
2021/08/05 06:55:36;;;;;;;;;;;16.70;99.90;;;;;;1876891;76;20228;-76
2021/08/05 06:58:03;;;;;;;;;;;16.70;99.90;;;;;;1877952;76;20222;-76
2021/08/05 07:00:30;;;;;;;;;;;16.70;99.90;;;;;;1851695;76;20204;-76
2021/08/05 07:02:56;;;;;;;;;;;16.80;99.90;;;;;;1874255;76;20566;-76
2021/08/05 07:05:23;;;;;;;;;;;16.80;99.90;;;;;;1878821;76;20179;-75
2021/08/05 07:07:54;;;;;;;;;;;16.90;99.90;;;;;;1878963;75;20472;-76
2021/08/05 07:10:19;;;;;;;;;;;17.00;99.90;;;;;;1877982;76;20120;-75
2021/08/05 07:12:45;;;;;;;;;;;17.10;99.90;;;;;;1878749;76;20199;-75
2021/08/05 07:15:12;;;;;;;;;;;17.10;99.90;;;;;;1879089;76;20168;-75
2021/08/05 07:17:44;;;;;;;;;;;17.20;99.90;;;;;;1878993;75;20140;-75
2021/08/05 07:20:12;;;;;;;;;;;17.20;99.90;;;;;;1878975;76;20447;-76
2021/08/05 07:22:40;;;;;;;;;;;17.30;99.90;;;;;;1878888;76;20140;-75
2021/08/05 07:25:08;;;;;;;;;;;17.40;99.90;;;;;;1874164;76;20132;-76
2021/08/05 07:27:35;;;;;;;;;;;17.40;99.90;;;;;;1877378;75;20125;-75
2021/08/05 07:30:03;;;;;;;;;;;17.50;99.90;;;;;;1848990;76;20196;-76
2021/08/05 07:32:29;;;;;;;;;;;17.60;99.90;;;;;;1877947;76;20202;-77
2021/08/05 07:34:56;;;;;;;;;;;17.60;99.90;;;;;;1879051;76;20504;-76
2021/08/05 07:37:23;;;;;;;;;;;17.60;99.90;;;;;;1878706;76;20487;-76
2021/08/05 07:39:50;;;;;;;;;;;17.70;99.90;;;;;;1865582;76;20439;-76
2021/08/05 07:42:18;;;;;;;;;;;17.80;99.90;;;;;;1875076;76;20472;-76
2021/08/05 07:44:46;;;;;;;;;;;17.80;99.90;;;;;;1878866;76;20168;-76
2021/08/05 07:47:13;;;;;;;;;;;17.90;99.90;;;;;;1877794;75;20212;-76
2021/08/05 07:49:39;;;;;;;;;;;17.90;99.90;;;;;;1878768;75;20230;-76
2021/08/05 07:52:06;;;;;;;;;;;18.00;99.90;;;;;;1878343;76;20206;-75
2021/08/05 07:54:34;;;;;;;;;;;18.00;99.90;;;;;;1876010;76;20229;-76
2021/08/05 07:57:00;;;;;;;;;;;18.00;99.90;;;;;;1874414;76;21098;-75
2021/08/05 07:59:27;;;;;;;;;;;18.00;99.90;;;;;;1876211;75;20277;-75
2021/08/05 08:01:54;;;;;;;;;;;18.10;99.90;;;;;;1872695;75;20195;-75
2021/08/05 08:04:21;;;;;;;;;;;18.10;99.90;;;;;;1875641;75;20287;-75
2021/08/05 08:06:48;;;;;;;;;;;18.20;99.90;;;;;;1874202;76;20205;-76
2021/08/05 08:09:14;;;;;;;;;;;18.20;99.90;;;;;;1871476;76;20472;-75
2021/08/05 08:11:41;;;;;;;;;;;18.20;99.90;;;;;;1874054;76;20202;-75
2021/08/05 08:14:08;;;;;;;;;;;18.20;99.90;;;;;;1872034;76;20831;-75
2021/08/05 08:16:39;;;;;;;;;;;18.30;99.90;;;;;;1872401;76;20201;-75
2021/08/05 08:19:03;;;;;;;;;;;18.30;99.90;;;;;;1874701;75;20202;-76
2021/08/05 08:21:30;;;;;;;;;;;18.30;99.90;;;;;;1873495;76;20270;-74
2021/08/05 08:23:57;;;;;;;;;;;18.40;99.90;;;;;;1872464;76;20212;-76
2021/08/05 08:26:24;;;;;;;;;;;18.50;99.90;;;;;;1871494;76;20219;-74
2021/08/05 08:28:50;;;;;;;;;;;18.40;99.90;;;;;;1872509;75;20773;-76
2021/08/05 08:31:17;;;;;;;;;;;18.40;99.90;;;;;;1873380;76;20183;-75
2021/08/05 08:33:44;;;;;;;;;;;18.40;99.90;;;;;;1873304;75;20653;-75
2021/08/05 08:36:11;;;;;;;;;;;18.50;99.90;;;;;;1872614;76;20207;-75
2021/08/05 08:38:42;;;;;;;;;;;18.50;99.90;;;;;;1873294;75;20581;-76
2021/08/05 08:41:07;;;;;;;;;;;18.40;99.90;;;;;;1870531;76;20237;-75
2021/08/05 08:43:34;;;;;;;;;;;18.50;99.90;;;;;;1872876;76;20234;-76
2021/08/05 08:46:01;;;;;;;;;;;18.50;99.90;;;;;;1870046;76;20234;-75
2021/08/05 08:48:28;;;;;;;;;;;18.50;99.90;;;;;;1874083;75;20476;-76
2021/08/05 08:50:57;;;;;;;;;;;18.50;99.90;;;;;;1875656;76;20498;-75
2021/08/05 08:53:25;;;;;;;;;;;18.60;99.90;;;;;;1869370;75;20187;-75
2021/08/05 08:55:55;;;;;;;;;;;18.60;99.90;;;;;;1870435;76;20191;-75
2021/08/05 08:58:21;;;;;;;;;;;18.70;99.90;;;;;;1873353;75;20171;-75
2021/08/05 09:00:47;;;;;;;;;;;18.70;99.90;;;;;;1874896;76;20205;-75
2021/08/05 09:03:14;;;;;;;;;;;18.70;99.90;;;;;;1875970;76;20202;-75
2021/08/05 09:05:41;;;;;;;;;;;18.80;99.90;;;;;;1874478;76;20236;-75
2021/08/05 09:08:08;;;;;;;;;;;18.90;99.90;;;;;;1873973;75;20206;-75
2021/08/05 09:10:35;;;;;;;;;;;18.90;99.90;;;;;;1873212;75;20312;-75
2021/08/05 09:13:02;;;;;;;;;;;19.00;99.90;;;;;;1871579;76;20223;-75
2021/08/05 09:15:39;;;;;;;;;;;19.00;99.90;;;;;;1873757;76;20242;-75
2021/08/05 09:18:25;;;;;;;;;;;19.10;99.90;;;;;;1874128;76;20168;-75
2021/08/05 09:21:10;;;;;;;;;;;19.20;99.90;;;;;;1881924;75;20167;-75
2021/08/05 09:23:56;;;;;;;;;;;19.20;99.90;;;;;;1877653;76;20160;-75
2021/08/05 09:26:42;;;;;;;;;;;19.30;99.90;;;;;;1879111;76;20148;-75
2021/08/05 09:29:13;;;;;;;;;;;19.40;99.90;;;;;;1878924;76;20200;-75
2021/08/05 09:31:47;;;;;;;;;;;19.40;99.90;;;;;;1878768;76;20183;-75
2021/08/05 09:34:15;;;;;;;;;;;19.50;99.90;;;;;;1878870;76;20324;-76
2021/08/05 09:36:43;;;;;;;;;;;19.50;99.90;;;;;;1877448;76;20194;-75
2021/08/05 09:39:11;;;;;;;;;;;19.40;99.90;;;;;;1878934;76;20171;-75
2021/08/05 09:41:39;;;;;;;;;;;19.50;99.90;;;;;;1874472;76;20164;-75
2021/08/05 09:44:06;;;;;;;;;;;19.40;99.90;;;;;;1876815;75;20522;-75
2021/08/05 09:46:33;;;;;;;;;;;19.50;99.90;;;;;;1879135;76;20179;-76
2021/08/05 09:49:00;;;;;;;;;;;19.60;99.90;;;;;;1883753;75;20175;-75
2021/08/05 09:51:27;;;;;;;;;;;19.60;99.90;;;;;;1911930;75;20188;-75
2021/08/05 09:54:04;;;;;;;;;;;19.60;99.90;;;;;;1886412;75;20127;-76
2021/08/05 09:56:33;;;;;;;;;;;19.70;99.90;;;;;;1845975;78;20198;-76
2021/08/05 09:59:10;;;;;;;;;;;19.70;99.90;;;;;;1858812;76;20491;-75
2021/08/05 10:01:38;;;;;;;;;;;19.80;99.90;;;;;;1878924;75;20213;-75
2021/08/05 10:04:25;;;;;;;;;;;19.80;99.90;;;;;;1873900;76;20895;-76
2021/08/05 10:07:02;;;;;;;;;;;19.80;99.90;;;;;;1878761;75;20335;-75
2021/08/05 10:09:29;;;;;;;;;;;19.90;99.90;;;;;;1878874;76;20206;-76
2021/08/05 10:12:14;;;;;;;;;;;19.90;99.90;;;;;;1878882;76;20190;-75
2021/08/05 10:14:41;;;;;;;;;;;20.00;99.90;;;;;;1875878;76;20164;-75
2021/08/05 10:17:08;;;;;;;;;;;20.00;99.90;;;;;;1878296;76;20191;-75
2021/08/05 10:19:40;;;;;;;;;;;20.10;99.90;;;;;;1878531;76;20205;-77
2021/08/05 10:22:08;;;;;;;;;;;20.10;99.90;;;;;;1873360;75;20187;-77
2021/08/05 10:24:36;;;;;;;;;;;20.10;99.90;;;;;;1879636;76;20515;-75
2021/08/05 10:27:05;;;;;;;;;;;20.20;99.90;;;;;;1878211;75;20199;-76
2021/08/05 10:29:34;;;;;;;;;;;20.30;99.90;;;;;;1893173;72;20174;-75
2021/08/05 10:32:01;;;;;;;;;;;20.30;99.90;;;;;;1908870;75;20158;-75
2021/08/05 10:34:28;;;;;;;;;;;20.60;99.90;;;;;;1908571;74;20126;-74
2021/08/05 10:36:55;;;;;;;;;;;20.50;99.90;;;;;;1915201;74;20166;-75
2021/08/05 10:39:22;;;;;;;;;;;20.60;99.90;;;;;;1889287;74;20399;-76
2021/08/05 10:41:50;;;;;;;;;;;20.60;99.90;;;;;;1886890;75;20168;-76
2021/08/05 10:44:16;;;;;;;;;;;20.60;99.90;;;;;;1870893;74;20157;-76
2021/08/05 10:46:44;;;;;;;;;;;20.70;99.90;;;;;;1887219;75;20479;-77
2021/08/05 10:49:30;;;;;;;;;;;20.70;99.90;;;;;;1930668;72;20470;-77
2021/08/05 10:51:57;;;;;;;;;;;20.80;99.90;;;;;;1850405;76;20181;-77
2021/08/05 10:54:37;;;;;;;;;;;20.80;99.90;;;;;;1859772;76;20214;-75
2021/08/05 10:57:08;;;;;;;;;;;20.70;99.90;;;;;;1809215;76;20123;-75
2021/08/05 10:59:35;;;;;;;;;;;20.70;99.90;;;;;;1822185;78;20231;-76
2021/08/05 11:02:02;;;;;;;;;;;20.80;99.90;;;;;;1845826;76;20217;-75
2021/08/05 11:04:39;;;;;;;;;;;20.90;99.90;;;;;;1844759;78;20212;-76
2021/08/05 11:07:24;;;;;;;;;;;21.10;99.90;;;;;;1841897;76;20486;-75
2021/08/05 11:09:52;;;;;;;;;;;21.10;99.90;;;;;;1842758;76;20131;-74
2021/08/05 11:12:44;;;;;;;;;;;21.00;99.90;;;;;;1846173;78;20506;-75
2021/08/05 11:15:08;;;;;;;;;;;20.90;99.90;;;;;;1934119;73;20160;-75
2021/08/05 11:17:36;;;;;;;;;;;20.90;99.90;;;;;;1948396;73;20175;-75
2021/08/05 11:20:16;;;;;;;;;;;20.90;99.90;;;;;;1936225;73;20153;-75
2021/08/05 11:22:45;;;;;;;;;;;20.90;99.90;;;;;;1927138;73;20657;-75
2021/08/05 11:25:12;;;;;;;;;;;20.80;99.90;;;;;;1888510;74;20135;-75
2021/08/05 11:27:44;;;;;;;;;;;20.70;99.90;;;;;;1879627;75;20131;-75
2021/08/05 11:30:25;;;;;;;;;;;20.70;99.90;;;;;;1872975;75;20110;-75
2021/08/05 11:32:52;;;;;;;;;;;20.80;99.90;;;;;;1910202;74;20170;-75
2021/08/05 11:35:21;;;;;;;;;;;20.90;99.90;;;;;;1901516;74;20117;-75
2021/08/05 11:37:52;;;;;;;;;;;20.90;99.90;;;;;;1887138;74;20127;-75
2021/08/05 11:40:20;;;;;;;;;;;20.80;99.90;;;;;;1926708;73;20106;-75
2021/08/05 11:42:47;;;;;;;;;;;20.90;99.90;;;;;;1921196;74;20195;-75
2021/08/05 11:45:14;;;;;;;;;;;21.00;99.90;;;;;;1926189;73;20133;-75
2021/08/05 11:47:42;;;;;;;;;;;21.20;99.90;;;;;;1922784;73;20126;-75
2021/08/05 11:50:13;;;;;;;;;;;21.30;99.90;;;;;;1917944;73;20141;-75
2021/08/05 11:52:39;;;;;;;;;;;21.30;99.90;;;;;;1916991;74;20131;-75
2021/08/05 11:55:11;;;;;;;;;;;21.10;99.90;;;;;;1925872;73;20407;-75
2021/08/05 11:57:45;;;;;;;;;;;21.00;99.90;;;;;;1912386;73;20157;-75
2021/08/05 12:05:59;;;;;;;;;;;21.00;99.90;;;;;;1886416;75;20156;-75
2021/08/05 12:08:26;;;;;;;;;;;21.20;99.90;;;;;;1889605;75;20187;-76
2021/08/05 12:10:53;;;;;;;;;;;21.30;99.90;;;;;;1885527;75;20187;-75
2021/08/05 12:13:21;;;;;;;;;;;21.30;99.90;;;;;;1874356;75;20227;-75
2021/08/05 12:15:53;;;;;;;;;;;21.30;99.90;;;;;;1872591;75;20185;-75
2021/08/05 12:18:21;;;;;;;;;;;21.20;99.90;;;;;;1880420;75;20245;-75
2021/08/05 12:20:49;;;;;;;;;;;21.10;99.90;;;;;;1873070;75;20172;-75
2021/08/05 12:23:32;;;;;;;;;;;21.40;99.90;;;;;;1866386;75;20166;-76
2021/08/05 12:26:37;;;;;;;;;;;21.40;99.90;;;;;;1874674;75;20130;-76
2021/08/05 12:28:37;;;;;;;;;;;21.40;99.90;;;;;;1865973;75;20183;-75
2021/08/05 12:31:05;;;;;;;;;;;21.50;99.90;;;;;;1873997;75;20183;-75
2021/08/05 12:33:35;;;;;;;;;;;21.60;99.90;;;;;;1865353;75;20173;-75
2021/08/05 12:36:07;;;;;;;;;;;21.80;99.90;;;;;;1880611;75;20117;-75
2021/08/05 12:38:52;;;;;;;;;;;21.90;99.90;;;;;;1877070;75;20186;-75
2021/08/05 12:41:21;;;;;;;;;;;22.00;99.90;;;;;;1882318;75;20211;-75
2021/08/05 12:43:47;;;;;;;;;;;22.10;99.90;;;;;;1879447;75;20208;-75
2021/08/05 12:46:14;;;;;;;;;;;22.10;99.90;;;;;;1882316;75;20187;-75
2021/08/05 12:48:42;;;;;;;;;;;22.20;99.90;;;;;;1879577;75;20178;-75
2021/08/05 12:51:16;;;;;;;;;;;22.30;99.90;;;;;;1870732;75;20944;-75
2021/08/05 12:53:42;;;;;;;;;;;22.20;99.90;;;;;;1877418;75;20167;-75
2021/08/05 12:56:29;;;;;;;;;;;22.30;99.90;;;;;;1869991;75;20171;-75
2021/08/05 12:58:57;;;;;;;;;;;22.20;99.90;;;;;;1898902;74;20457;-75
2021/08/05 13:01:24;;;;;;;;;;;22.30;99.90;;;;;;1892758;76;20191;-75
2021/08/05 13:03:53;;;;;;;;;;;22.40;99.90;;;;;;1890815;76;20423;-75
2021/08/05 13:06:21;;;;;;;;;;;22.50;99.90;;;;;;1892519;75;20268;-75
2021/08/05 13:08:50;;;;;;;;;;;22.60;99.90;;;;;;1893590;74;20198;-74
2021/08/05 13:11:35;;;;;;;;;;;22.70;99.90;;;;;;1893510;76;20121;-75
2021/08/05 13:14:02;;;;;;;;;;;22.70;99.90;;;;;;1892710;76;20135;-76
2021/08/05 13:16:33;;;;;;;;;;;22.70;99.90;;;;;;1893270;76;20146;-76
2021/08/05 13:19:01;;;;;;;;;;;22.70;99.90;;;;;;1892819;74;20150;-76
2021/08/05 13:21:29;;;;;;;;;;;22.70;99.90;;;;;;1891902;76;20452;-77
2021/08/05 13:23:56;;;;;;;;;;;22.50;99.90;;;;;;1892363;76;20399;-76
2021/08/05 13:26:33;;;;;;;;;;;22.60;99.90;;;;;;1891944;76;20173;-76
2021/08/05 13:29:00;;;;;;;;;;;22.60;99.90;;;;;;1892812;75;20178;-76
2021/08/05 13:31:27;;;;;;;;;;;22.60;99.90;;;;;;1893897;76;20173;-77
2021/08/05 13:34:10;;;;;;;;;;;22.60;99.90;;;;;;1891161;76;20184;-77
2021/08/05 13:36:37;;;;;;;;;;;22.60;99.90;;;;;;1890822;76;20206;-77
2021/08/05 13:39:05;;;;;;;;;;;22.40;99.90;;;;;;1892689;74;20188;-76
2021/08/05 13:41:33;;;;;;;;;;;22.60;99.90;;;;;;1891905;76;20449;-77
2021/08/05 13:43:59;;;;;;;;;;;22.70;99.90;;;;;;1891897;76;20177;-77
2021/08/05 13:46:27;;;;;;;;;;;22.90;99.90;;;;;;1889441;76;20204;-76
2021/08/05 13:48:56;;;;;;;;;;;22.90;99.90;;;;;;1888465;74;20157;-77
2021/08/05 13:51:24;;;;;;;;;;;22.80;99.90;;;;;;1891855;75;20224;-76
2021/08/05 13:53:51;;;;;;;;;;;22.60;99.90;;;;;;1889597;75;20208;-78
2021/08/05 13:56:18;;;;;;;;;;;22.80;99.90;;;;;;1891699;76;20529;-76
2021/08/05 13:58:45;;;;;;;;;;;22.50;99.90;;;;;;1892127;74;20215;-77
2021/08/05 14:01:12;;;;;;;;;;;22.40;99.90;;;;;;1889518;76;20173;-76
2021/08/05 14:03:39;;;;;;;;;;;22.40;99.90;;;;;;1891822;76;20213;-76
2021/08/05 14:06:05;;;;;;;;;;;22.70;99.90;;;;;;1891904;76;20206;-76
2021/08/05 14:08:32;;;;;;;;;;;22.50;99.90;;;;;;1892629;74;20198;-76
2021/08/05 14:10:59;;;;;;;;;;;22.80;99.90;;;;;;1892864;76;20118;-77
2021/08/05 14:13:26;;;;;;;;;;;22.70;99.90;;;;;;1891338;76;20205;-76
2021/08/05 14:15:53;;;;;;;;;;;22.60;99.90;;;;;;1888984;76;20125;-76
2021/08/05 14:18:20;;;;;;;;;;;22.60;99.90;;;;;;1896456;75;20156;-76
2021/08/05 14:20:47;;;;;;;;;;;23.00;99.90;;;;;;1896350;76;20168;-76
2021/08/05 14:23:13;;;;;;;;;;;23.10;99.90;;;;;;1896173;76;20145;-76
2021/08/05 14:25:40;;;;;;;;;;;23.30;99.90;;;;;;1896094;76;20173;-76
2021/08/05 14:28:08;;;;;;;;;;;23.60;99.90;;;;;;1880464;76;20205;-76